PGSN

Francisco C Ada / Saipan International Airport

Saipan Island, , North Mariana Islands
PGSN 182340Z 1900/1924 06015G24KT P6SM VCSH SCT018 BKN040 OVC100 TEMPO 1900/1904 3SM SHRA BKN014 OVC030 FM190600 07013KT P6SM VCSH SCT018 SCT040 BKN120
Issued Valid From Valid To
Jan-18 @ 23:40 UTC
(3 hours ago)
Jan-19 @ 00:00 UTC
(2 hours ago)
Jan-20 @ 00:00 UTC
(in 22 hours)
Jan-19 @ 00:00 to Jan-19 @ 06:00
PGSN 182340Z 1900/1924 06015G24KT P6SM VCSH SCT018 BKN040 OVC100
Wind Visibility Clouds
60° at 15 knots
 Gusting to 24 knots
10,000+ meters
  • Scattered at 1,800' AGL
  • Broken at 4,000' AGL
  • Overcast at 10,000' AGL
Temporary Jan-19 @ 00:00 to Jan-19 @ 04:00
TEMPO 1900/1904 3SM SHRA BKN014 OVC030
Visibility Clouds Conditions
4,828 meters
  • Broken at 1,400' AGL
  • Overcast at 3,000' AGL
  • Rain
From Jan-19 @ 06:00 to Jan-20 @ 00:00
FM190600 07013KT P6SM VCSH SCT018 SCT040 BKN120
Wind Visibility Clouds
70° at 13 knots 10,000+ meters
  • Scattered at 1,800' AGL
  • Scattered at 4,000' AGL
  • Broken at 12,000' AGL
PGSN 182340Z 1900/1924 06015G24KT P6SM VCSH SCT018 BKN040 OVC100 TEMPO 1900/1904 3SM SHRA BKN014 OVC030 FM190600 07013KT P6SM VCSH SCT018 SCT040 BKN120
Issued Jan-18 @ 23:40 UTC
(3 hours ago)
Valid From Jan-19 @ 00:00 UTC
(2 hours ago)
Valid To Jan-20 @ 00:00 UTC
(in 22 hours)
Jan-19 @ 00:00 - Jan-19 @ 06:00
Wind Visibility
60° at 15 knots
 Gusting to 24 knots
10,000+ meters
Clouds
  • Scattered at 1,800' AGL
  • Broken at 4,000' AGL
  • Overcast at 10,000' AGL
Temporary Jan-19 @ 00:00 - Jan-19 @ 04:00
Clouds
  • Broken at 1,400' AGL
  • Overcast at 3,000' AGL
Conditions
  • Rain
From Jan-19 @ 06:00 - Jan-20 @ 00:00
Wind Visibility
70° at 13 knots 10,000+ meters
Clouds
  • Scattered at 1,800' AGL
  • Scattered at 4,000' AGL
  • Broken at 12,000' AGL